createdAt,value
2018-10-12T00:00:07.849Z,26.10
2018-10-12T00:02:41.505Z,25.53
2018-10-12T00:05:15.076Z,31.17
2018-10-12T00:07:48.115Z,26.43
2018-10-12T00:10:21.169Z,26.50
2018-10-12T00:12:53.591Z,28.50
2018-10-12T00:15:26.444Z,29.43
2018-10-12T00:18:00.044Z,26.13
2018-10-12T00:20:32.989Z,27.43
2018-10-12T00:23:06.044Z,25.87
2018-10-12T00:25:38.850Z,22.73
2018-10-12T00:28:11.437Z,13.37
2018-10-12T00:30:44.152Z,12.23
2018-10-12T00:33:16.956Z,13.43
2018-10-12T00:35:50.401Z,9.93
2018-10-12T00:38:23.320Z,9.00
2018-10-12T00:40:56.875Z,10.77
2018-10-12T00:43:30.749Z,18.27
2018-10-12T00:46:03.440Z,11.87
2018-10-12T00:48:36.388Z,10.00
2018-10-12T00:51:09.423Z,10.83
2018-10-12T00:53:42.421Z,9.43
2018-10-12T00:56:15.503Z,14.20
2018-10-12T00:58:48.089Z,18.93
2018-10-12T01:01:21.882Z,14.83
2018-10-12T01:03:54.623Z,14.47
2018-10-12T01:06:27.382Z,15.57
2018-10-12T01:09:00.516Z,15.93
2018-10-12T01:11:33.354Z,16.33
2018-10-12T01:14:06.524Z,14.30
2018-10-12T01:16:39.320Z,16.70
2018-10-12T01:19:12.064Z,16.53
2018-10-12T01:21:45.888Z,17.70
2018-10-12T01:24:18.903Z,17.53
2018-10-12T01:26:51.838Z,20.07
2018-10-12T01:29:24.977Z,15.17
2018-10-12T01:31:57.732Z,18.53
2018-10-12T01:34:30.623Z,21.30
2018-10-12T01:37:03.596Z,15.50
2018-10-12T01:39:36.412Z,17.70
2018-10-12T01:42:09.221Z,14.83
2018-10-12T01:44:42.338Z,14.40
2018-10-12T01:47:15.164Z,15.77
2018-10-12T01:49:48.222Z,16.97
2018-10-12T01:52:20.932Z,16.80
2018-10-12T01:54:53.811Z,17.73
2018-10-12T13:19:30.724Z,50.23
2018-10-12T13:22:03.308Z,46.47
2018-10-12T13:24:36.071Z,47.37
2018-10-12T13:27:08.423Z,45.77
2018-10-12T13:29:40.775Z,44.90
2018-10-12T13:32:14.328Z,43.43
2018-10-12T13:34:47.445Z,48.50
2018-10-12T13:37:20.258Z,43.17
2018-10-12T13:39:53.326Z,44.67
2018-10-12T13:42:26.241Z,44.87
2018-10-12T13:44:59.105Z,44.97
2018-10-12T13:47:31.968Z,45.27
2018-10-12T13:50:05.094Z,46.27
2018-10-12T13:52:37.917Z,42.70
2018-10-12T13:55:10.842Z,41.93
2018-10-12T13:57:43.781Z,37.00
2018-10-12T14:00:16.601Z,32.07
2018-10-12T14:02:50.872Z,34.40
2018-10-12T14:05:24.048Z,30.60
2018-10-12T14:07:57.007Z,28.83
2018-10-12T14:10:29.342Z,31.57
2018-10-12T14:13:02.467Z,31.20
2018-10-12T14:15:35.249Z,34.23
2018-10-12T14:18:08.722Z,42.07
2018-10-12T14:20:41.823Z,39.60
2018-10-12T14:23:14.662Z,45.53
2018-10-12T14:25:47.685Z,57.07
2018-10-12T14:28:19.964Z,39.87
2018-10-12T14:30:52.866Z,39.87
2018-10-12T14:33:25.129Z,36.37
2018-10-12T14:35:57.565Z,35.33
2018-10-12T14:38:29.961Z,32.00
2018-10-12T14:41:02.358Z,31.83
2018-10-12T14:43:34.710Z,32.30
2018-10-12T14:46:07.237Z,32.43
2018-10-12T14:48:39.485Z,30.87
2018-10-12T14:51:11.867Z,28.97
2018-10-12T14:53:44.153Z,28.63
2018-10-12T14:56:17.584Z,26.37
2018-10-12T14:58:49.923Z,25.40
2018-10-12T15:01:22.341Z,24.67
2018-10-12T15:03:54.899Z,21.97
2018-10-12T15:06:27.352Z,22.33
2018-10-12T15:09:08.229Z,20.43
2018-10-12T15:11:40.678Z,18.40
2018-10-12T15:14:13.653Z,16.45
2018-10-12T15:16:46.100Z,16.67
2018-10-12T15:19:18.494Z,14.63
2018-10-12T15:21:51.054Z,14.55
2018-10-12T15:24:24.515Z,10.28
2018-10-12T15:26:58.660Z,11.30
2018-10-12T15:29:30.920Z,9.15
2018-10-12T15:32:03.264Z,9.90
2018-10-12T15:34:36.392Z,11.55
2018-10-12T15:37:08.844Z,11.30
2018-10-12T15:39:41.363Z,12.20
2018-10-12T15:42:14.375Z,9.98
2018-10-12T15:44:46.915Z,13.35
2018-10-12T15:47:19.627Z,11.73
2018-10-12T15:49:53.008Z,11.33
2018-10-12T15:52:25.483Z,20.90
2018-10-12T15:54:59.090Z,8.95
2018-10-12T15:57:33.371Z,9.80
2018-10-12T16:00:06.476Z,10.28
2018-10-12T16:02:38.909Z,9.30
2018-10-12T16:05:11.737Z,10.72
2018-10-12T16:07:46.057Z,9.95
2018-10-12T16:10:49.116Z,8.73
2018-10-12T16:13:25.263Z,8.60
2018-10-12T16:15:58.848Z,14.10
2018-10-12T16:18:37.244Z,7.03
2018-10-12T16:21:11.515Z,6.70
2018-10-12T16:23:45.515Z,20.40
2018-10-12T16:26:21.692Z,7.90
2018-10-12T16:28:55.182Z,6.33
2018-10-12T16:31:28.839Z,5.75
2018-10-12T16:34:02.720Z,6.00
2018-10-12T16:36:35.483Z,7.62
2018-10-12T16:39:09.481Z,15.13
2018-10-12T16:41:42.603Z,14.60
2018-10-12T16:44:17.189Z,6.80
2018-10-12T16:46:50.980Z,7.50
2018-10-12T16:49:24.137Z,7.85
2018-10-12T16:51:56.631Z,7.42
2018-10-12T16:54:33.824Z,7.00
2018-10-12T16:57:06.240Z,7.55
2018-10-12T16:59:39.498Z,5.92
2018-10-12T17:02:11.800Z,10.85
2018-10-12T17:04:44.274Z,9.78
2018-10-12T17:07:17.358Z,7.30
2018-10-12T17:09:51.070Z,6.83
2018-10-12T17:12:23.545Z,8.15
2018-10-12T17:14:55.968Z,5.28
2018-10-12T17:17:28.649Z,6.20
2018-10-12T17:20:02.104Z,6.00
2018-10-12T17:22:35.139Z,6.55
2018-10-12T17:25:08.340Z,6.55
2018-10-12T17:27:41.394Z,6.75
2018-10-12T17:30:13.838Z,7.10
2018-10-12T17:32:46.992Z,8.15
2018-10-12T17:35:20.168Z,6.53
2018-10-12T17:37:52.961Z,6.58
2018-10-12T17:40:26.417Z,5.87
2018-10-12T17:42:59.479Z,5.70
2018-10-12T17:45:32.588Z,8.05
2018-10-12T17:48:05.771Z,8.15
2018-10-12T17:50:39.217Z,7.90
2018-10-12T17:53:12.097Z,7.42
2018-10-12T17:55:45.005Z,6.70
2018-10-12T17:58:17.280Z,7.17
2018-10-12T18:00:50.763Z,8.10
2018-10-12T18:03:23.995Z,8.58
2018-10-12T18:05:56.316Z,8.70
2018-10-12T18:08:28.701Z,7.28
2018-10-12T18:11:15.397Z,7.15
2018-10-12T18:14:01.713Z,7.97
2018-10-12T18:16:47.839Z,7.00
2018-10-12T18:19:33.761Z,6.33
2018-10-12T18:22:19.712Z,6.12
2018-10-12T18:25:05.603Z,7.03
2018-10-12T18:27:52.626Z,6.47
2018-10-12T18:30:38.535Z,7.03
2018-10-12T18:33:24.893Z,9.33
2018-10-12T18:36:11.494Z,8.35
2018-10-12T18:38:57.532Z,6.75
2018-10-12T18:41:43.544Z,10.90
2018-10-12T18:44:30.111Z,7.70
2018-10-12T18:47:16.520Z,6.87
2018-10-12T18:50:03.231Z,6.33
2018-10-12T18:52:50.002Z,7.50
2018-10-12T18:55:36.032Z,7.00
2018-10-12T18:58:22.092Z,6.53
2018-10-12T19:01:08.834Z,6.58
2018-10-12T19:03:54.912Z,6.17
2018-10-12T19:06:40.938Z,6.62
2018-10-12T19:09:28.134Z,6.28
2018-10-12T19:12:14.353Z,6.75
2018-10-12T19:15:01.923Z,7.28
2018-10-12T19:17:48.145Z,6.58
2018-10-12T19:20:35.244Z,6.08
2018-10-12T19:23:21.785Z,6.67
2018-10-12T19:26:07.804Z,6.65
2018-10-12T19:28:54.117Z,6.92
2018-10-12T19:31:40.259Z,7.30
2018-10-12T19:34:26.163Z,7.30
2018-10-12T19:37:12.263Z,6.65
2018-10-12T19:39:59.098Z,12.00
2018-10-12T19:42:45.481Z,7.47
2018-10-12T19:45:31.701Z,7.45
2018-10-12T19:48:19.345Z,8.88
2018-10-12T19:51:05.886Z,7.10
2018-10-12T19:53:52.445Z,6.17
2018-10-12T19:56:39.161Z,7.10
2018-10-12T19:59:25.320Z,23.00
2018-10-12T20:02:11.308Z,9.25
2018-10-12T20:04:57.228Z,7.75
2018-10-12T20:07:43.341Z,7.08
2018-10-12T20:10:16.137Z,7.37
2018-10-12T20:12:51.699Z,6.47
2018-10-12T20:15:24.874Z,7.45
2018-10-12T20:17:57.224Z,8.93
2018-10-12T20:20:29.616Z,7.55
2018-10-12T20:23:01.921Z,6.78
2018-10-12T20:25:37.155Z,7.08
2018-10-12T20:28:10.341Z,6.40
2018-10-12T20:30:42.625Z,7.47
2018-10-12T20:33:15.827Z,7.95
2018-10-12T20:35:48.793Z,6.70
2018-10-12T20:38:21.181Z,6.60
2018-10-12T20:40:53.438Z,6.75
2018-10-12T20:43:25.701Z,9.05
2018-10-12T20:45:57.977Z,6.72
2018-10-12T20:48:30.349Z,6.03
2018-10-12T20:51:03.355Z,4.62
2018-10-12T20:53:35.708Z,5.58
2018-10-12T20:56:08.976Z,5.40
2018-10-12T20:58:41.375Z,5.37
2018-10-12T21:01:13.595Z,5.20
2018-10-12T21:03:45.972Z,5.10
2018-10-12T21:06:18.276Z,4.62
2018-10-12T21:08:50.573Z,4.30
2018-10-12T21:11:23.446Z,5.20
2018-10-12T21:13:55.925Z,5.28
2018-10-12T21:16:29.445Z,5.00
2018-10-12T21:19:02.729Z,5.25
2018-10-12T21:21:35.289Z,5.47
2018-10-12T21:24:07.633Z,5.20
2018-10-12T21:26:39.904Z,4.07
2018-10-12T21:29:12.219Z,4.33
2018-10-12T21:31:44.435Z,3.87
2018-10-12T21:34:16.833Z,3.67
2018-10-12T21:36:49.360Z,4.63
2018-10-12T21:39:22.311Z,5.00
2018-10-12T21:41:54.783Z,4.63
2018-10-12T21:44:28.061Z,6.17
2018-10-12T21:47:00.305Z,5.53
2018-10-12T21:49:33.061Z,4.50
2018-10-12T21:52:05.312Z,3.97
2018-10-12T21:54:37.730Z,3.07
2018-10-12T21:57:10.091Z,2.77
2018-10-12T21:59:42.540Z,2.70
2018-10-12T22:02:14.764Z,2.67
2018-10-12T22:04:47.129Z,3.40
2018-10-12T22:07:19.404Z,4.83
2018-10-12T22:09:51.843Z,6.20
2018-10-12T22:12:24.112Z,6.20
2018-10-12T22:14:56.478Z,5.80
2018-10-12T22:17:29.272Z,5.33
2018-10-12T22:20:06.432Z,5.07
2018-10-12T22:22:40.680Z,4.80
2018-10-12T22:25:12.988Z,4.57
2018-10-12T22:27:45.287Z,5.40
2018-10-12T22:30:17.608Z,5.30
2018-10-12T22:32:49.918Z,5.30
2018-10-12T22:35:22.526Z,3.60
2018-10-12T22:37:56.884Z,4.53
2018-10-12T22:40:30.885Z,5.80
2018-10-12T22:43:03.429Z,4.80
2018-10-12T22:45:36.036Z,4.80
2018-10-12T22:48:08.484Z,4.90
2018-10-12T22:50:40.964Z,4.40
2018-10-12T22:53:13.838Z,5.93
2018-10-12T22:55:47.463Z,6.37
2018-10-12T22:58:20.161Z,6.53
2018-10-12T23:00:53.071Z,6.73
2018-10-12T23:03:25.791Z,6.10
2018-10-12T23:05:58.355Z,9.33
2018-10-12T23:08:30.731Z,7.17
2018-10-12T23:11:03.077Z,5.67
2018-10-12T23:13:36.269Z,5.80
2018-10-12T23:16:08.608Z,4.53
2018-10-12T23:18:41.005Z,6.17
2018-10-12T23:21:13.595Z,6.47
2018-10-12T23:23:45.920Z,12.33
2018-10-12T23:26:19.371Z,24.93
2018-10-12T23:28:51.739Z,18.90
2018-10-12T23:31:24.320Z,11.17
2018-10-12T23:34:13.844Z,17.90
2018-10-12T23:36:46.245Z,12.43
2018-10-12T23:39:19.005Z,7.57
2018-10-12T23:41:51.467Z,7.60
2018-10-12T23:44:23.790Z,8.17
2018-10-12T23:46:56.400Z,13.80
2018-10-12T23:49:29.453Z,9.87
2018-10-12T23:52:02.905Z,24.73
2018-10-12T23:54:35.154Z,8.60
2018-10-12T23:57:08.067Z,14.57
2018-10-12T23:59:40.488Z,6.47
